sensor_id;sensor_type;location;lat;lon;timestamp;P1;durP1;ratioP1;P2;durP2;ratioP2
73699;SDS011;62005;50.082;8.988;2023-03-04T00:02:03;13.15;;;5.90;;
73699;SDS011;62005;50.082;8.988;2023-03-04T00:52:01;13.07;;;6.63;;
73699;SDS011;62005;50.082;8.988;2023-03-04T03:45:33;15.13;;;7.45;;
73699;SDS011;62005;50.082;8.988;2023-03-04T04:19:31;17.13;;;9.45;;
73699;SDS011;62005;50.082;8.988;2023-03-04T04:21:56;17.33;;;8.38;;
73699;SDS011;62005;50.082;8.988;2023-03-04T04:24:25;16.90;;;8.27;;
73699;SDS011;62005;50.082;8.988;2023-03-04T04:50:24;14.38;;;6.57;;
73699;SDS011;62005;50.082;8.988;2023-03-04T04:52:50;17.25;;;8.13;;
73699;SDS011;62005;50.082;8.988;2023-03-04T05:19:33;16.13;;;7.28;;
73699;SDS011;62005;50.082;8.988;2023-03-04T05:24:50;14.77;;;6.97;;
73699;SDS011;62005;50.082;8.988;2023-03-04T05:30:58;14.00;;;8.30;;
73699;SDS011;62005;50.082;8.988;2023-03-04T05:40:41;15.57;;;8.35;;
73699;SDS011;62005;50.082;8.988;2023-03-04T05:49:57;21.90;;;9.82;;
73699;SDS011;62005;50.082;8.988;2023-03-04T06:22:46;21.95;;;9.30;;
73699;SDS011;62005;50.082;8.988;2023-03-04T07:49:33;18.58;;;8.25;;
73699;SDS011;62005;50.082;8.988;2023-03-04T07:52:04;18.33;;;9.30;;
73699;SDS011;62005;50.082;8.988;2023-03-04T08:02:00;17.13;;;9.50;;
73699;SDS011;62005;50.082;8.988;2023-03-04T12:15:55;11.20;;;4.63;;
73699;SDS011;62005;50.082;8.988;2023-03-04T12:18:49;13.15;;;4.50;;
73699;SDS011;62005;50.082;8.988;2023-03-04T12:24:26;12.10;;;4.13;;
73699;SDS011;62005;50.082;8.988;2023-03-04T12:30:15;11.65;;;6.03;;
73699;SDS011;62005;50.082;8.988;2023-03-04T12:49:44;11.27;;;3.90;;
73699;SDS011;62005;50.082;8.988;2023-03-04T12:55:28;8.43;;;3.55;;
73699;SDS011;62005;50.082;8.988;2023-03-04T12:58:00;6.88;;;3.03;;
73699;SDS011;62005;50.082;8.988;2023-03-04T13:14:03;12.15;;;3.72;;
73699;SDS011;62005;50.082;8.988;2023-03-04T13:16:52;9.10;;;3.55;;
73699;SDS011;62005;50.082;8.988;2023-03-04T13:22:26;9.27;;;5.35;;
73699;SDS011;62005;50.082;8.988;2023-03-04T13:24:54;12.13;;;5.40;;
73699;SDS011;62005;50.082;8.988;2023-03-04T13:32:56;12.55;;;4.85;;
73699;SDS011;62005;50.082;8.988;2023-03-04T13:43:25;12.75;;;5.43;;
73699;SDS011;62005;50.082;8.988;2023-03-04T13:45:52;15.02;;;6.43;;
73699;SDS011;62005;50.082;8.988;2023-03-04T13:48:29;11.02;;;5.72;;
73699;SDS011;62005;50.082;8.988;2023-03-04T13:51:01;12.93;;;5.45;;
73699;SDS011;62005;50.082;8.988;2023-03-04T13:54:10;21.45;;;8.23;;
73699;SDS011;62005;50.082;8.988;2023-03-04T14:01:34;15.05;;;6.97;;
73699;SDS011;62005;50.082;8.988;2023-03-04T14:04:11;16.70;;;6.03;;
73699;SDS011;62005;50.082;8.988;2023-03-04T14:06:42;17.67;;;5.22;;
73699;SDS011;62005;50.082;8.988;2023-03-04T14:09:13;9.18;;;4.03;;
73699;SDS011;62005;50.082;8.988;2023-03-04T14:11:39;10.75;;;4.72;;
73699;SDS011;62005;50.082;8.988;2023-03-04T14:14:07;13.93;;;4.35;;
73699;SDS011;62005;50.082;8.988;2023-03-04T14:16:37;14.20;;;4.15;;
73699;SDS011;62005;50.082;8.988;2023-03-04T14:19:12;22.13;;;9.80;;
73699;SDS011;62005;50.082;8.988;2023-03-04T14:21:45;14.90;;;5.40;;
73699;SDS011;62005;50.082;8.988;2023-03-04T14:24:24;11.88;;;5.88;;
73699;SDS011;62005;50.082;8.988;2023-03-04T14:27:41;17.75;;;6.53;;
73699;SDS011;62005;50.082;8.988;2023-03-04T14:30:44;15.00;;;6.30;;
73699;SDS011;62005;50.082;8.988;2023-03-04T14:34:05;15.65;;;6.60;;
73699;SDS011;62005;50.082;8.988;2023-03-04T14:39:56;12.25;;;5.80;;
73699;SDS011;62005;50.082;8.988;2023-03-04T14:42:24;11.23;;;5.63;;
73699;SDS011;62005;50.082;8.988;2023-03-04T14:44:56;10.00;;;5.28;;
73699;SDS011;62005;50.082;8.988;2023-03-04T14:47:28;12.10;;;4.45;;
73699;SDS011;62005;50.082;8.988;2023-03-04T14:50:06;15.57;;;4.93;;
73699;SDS011;62005;50.082;8.988;2023-03-04T14:52:41;11.35;;;5.60;;
73699;SDS011;62005;50.082;8.988;2023-03-04T14:57:44;12.38;;;3.78;;
73699;SDS011;62005;50.082;8.988;2023-03-04T15:00:24;7.13;;;3.60;;
73699;SDS011;62005;50.082;8.988;2023-03-04T15:02:52;6.75;;;3.33;;
73699;SDS011;62005;50.082;8.988;2023-03-04T15:05:22;10.60;;;2.67;;
73699;SDS011;62005;50.082;8.988;2023-03-04T15:07:56;7.25;;;4.25;;
73699;SDS011;62005;50.082;8.988;2023-03-04T15:10:28;11.55;;;4.88;;
73699;SDS011;62005;50.082;8.988;2023-03-04T15:13:02;11.93;;;4.32;;
73699;SDS011;62005;50.082;8.988;2023-03-04T15:15:31;10.18;;;4.47;;
73699;SDS011;62005;50.082;8.988;2023-03-04T15:18:01;11.38;;;5.22;;
73699;SDS011;62005;50.082;8.988;2023-03-04T15:20:36;7.30;;;3.95;;
73699;SDS011;62005;50.082;8.988;2023-03-04T15:23:02;9.90;;;3.97;;
73699;SDS011;62005;50.082;8.988;2023-03-04T15:25:31;10.18;;;4.53;;
73699;SDS011;62005;50.082;8.988;2023-03-04T15:27:57;12.65;;;3.35;;
73699;SDS011;62005;50.082;8.988;2023-03-04T15:30:27;9.55;;;4.05;;
73699;SDS011;62005;50.082;8.988;2023-03-04T15:32:56;11.02;;;3.80;;
73699;SDS011;62005;50.082;8.988;2023-03-04T15:35:23;6.22;;;2.40;;
73699;SDS011;62005;50.082;8.988;2023-03-04T15:37:51;8.63;;;2.83;;
73699;SDS011;62005;50.082;8.988;2023-03-04T15:42:52;6.30;;;3.25;;
73699;SDS011;62005;50.082;8.988;2023-03-04T15:45:27;4.57;;;3.25;;
73699;SDS011;62005;50.082;8.988;2023-03-04T15:47:55;6.60;;;2.50;;
73699;SDS011;62005;50.082;8.988;2023-03-04T15:50:32;7.85;;;3.28;;
73699;SDS011;62005;50.082;8.988;2023-03-04T15:52:59;8.25;;;3.35;;
73699;SDS011;62005;50.082;8.988;2023-03-04T15:57:57;6.60;;;3.00;;
73699;SDS011;62005;50.082;8.988;2023-03-04T16:00:24;9.25;;;3.83;;
73699;SDS011;62005;50.082;8.988;2023-03-04T16:02:50;7.72;;;4.28;;
73699;SDS011;62005;50.082;8.988;2023-03-04T16:05:15;8.43;;;3.83;;
73699;SDS011;62005;50.082;8.988;2023-03-04T16:07:41;7.57;;;3.73;;
73699;SDS011;62005;50.082;8.988;2023-03-04T16:10:28;7.78;;;4.40;;
73699;SDS011;62005;50.082;8.988;2023-03-04T16:12:55;12.45;;;4.68;;
73699;SDS011;62005;50.082;8.988;2023-03-04T16:15:27;10.25;;;3.85;;
73699;SDS011;62005;50.082;8.988;2023-03-04T16:17:54;7.68;;;3.78;;
73699;SDS011;62005;50.082;8.988;2023-03-04T16:20:22;10.55;;;3.95;;
73699;SDS011;62005;50.082;8.988;2023-03-04T16:22:53;9.57;;;4.80;;
73699;SDS011;62005;50.082;8.988;2023-03-04T16:30:43;10.70;;;4.07;;
73699;SDS011;62005;50.082;8.988;2023-03-04T16:33:25;9.10;;;3.70;;
73699;SDS011;62005;50.082;8.988;2023-03-04T16:35:51;16.60;;;5.50;;
73699;SDS011;62005;50.082;8.988;2023-03-04T16:38:18;10.00;;;5.63;;
73699;SDS011;62005;50.082;8.988;2023-03-04T16:40:51;11.73;;;4.75;;
73699;SDS011;62005;50.082;8.988;2023-03-04T16:43:16;8.30;;;4.22;;
73699;SDS011;62005;50.082;8.988;2023-03-04T16:45:53;7.97;;;3.20;;
73699;SDS011;62005;50.082;8.988;2023-03-04T16:48:24;13.15;;;5.53;;
73699;SDS011;62005;50.082;8.988;2023-03-04T16:50:55;12.65;;;4.60;;
73699;SDS011;62005;50.082;8.988;2023-03-04T16:53:38;9.90;;;4.07;;
73699;SDS011;62005;50.082;8.988;2023-03-04T16:56:22;9.45;;;3.65;;
73699;SDS011;62005;50.082;8.988;2023-03-04T16:58:48;8.48;;;4.80;;
73699;SDS011;62005;50.082;8.988;2023-03-04T17:01:23;9.95;;;4.70;;
73699;SDS011;62005;50.082;8.988;2023-03-04T17:04:00;6.18;;;3.90;;
73699;SDS011;62005;50.082;8.988;2023-03-04T17:06:25;13.13;;;5.28;;
73699;SDS011;62005;50.082;8.988;2023-03-04T17:08:52;9.55;;;3.80;;
73699;SDS011;62005;50.082;8.988;2023-03-04T17:11:18;9.27;;;3.47;;
73699;SDS011;62005;50.082;8.988;2023-03-04T17:13:46;4.97;;;2.97;;
73699;SDS011;62005;50.082;8.988;2023-03-04T17:16:11;7.45;;;3.58;;
73699;SDS011;62005;50.082;8.988;2023-03-04T17:18:37;7.80;;;3.67;;
73699;SDS011;62005;50.082;8.988;2023-03-04T17:21:03;8.48;;;3.80;;
73699;SDS011;62005;50.082;8.988;2023-03-04T17:23:31;7.47;;;4.95;;
73699;SDS011;62005;50.082;8.988;2023-03-04T17:25:57;9.73;;;4.43;;
73699;SDS011;62005;50.082;8.988;2023-03-04T17:28:23;8.90;;;4.65;;
73699;SDS011;62005;50.082;8.988;2023-03-04T17:30:49;11.52;;;5.15;;
73699;SDS011;62005;50.082;8.988;2023-03-04T17:33:14;11.10;;;4.67;;
73699;SDS011;62005;50.082;8.988;2023-03-04T17:35:40;7.87;;;5.13;;
73699;SDS011;62005;50.082;8.988;2023-03-04T17:38:05;9.07;;;3.70;;
73699;SDS011;62005;50.082;8.988;2023-03-04T17:40:31;11.33;;;3.87;;
73699;SDS011;62005;50.082;8.988;2023-03-04T17:42:56;9.20;;;3.63;;
73699;SDS011;62005;50.082;8.988;2023-03-04T17:45:22;10.97;;;4.97;;
73699;SDS011;62005;50.082;8.988;2023-03-04T17:47:47;10.70;;;4.28;;
73699;SDS011;62005;50.082;8.988;2023-03-04T17:50:13;10.03;;;5.03;;
73699;SDS011;62005;50.082;8.988;2023-03-04T17:52:38;8.73;;;3.80;;
73699;SDS011;62005;50.082;8.988;2023-03-04T17:55:04;11.05;;;4.40;;
73699;SDS011;62005;50.082;8.988;2023-03-04T17:57:29;10.55;;;4.95;;
73699;SDS011;62005;50.082;8.988;2023-03-04T17:59:55;9.50;;;4.73;;
73699;SDS011;62005;50.082;8.988;2023-03-04T18:02:21;9.63;;;4.15;;
73699;SDS011;62005;50.082;8.988;2023-03-04T18:04:46;9.73;;;4.32;;
73699;SDS011;62005;50.082;8.988;2023-03-04T18:09:39;15.37;;;4.40;;
73699;SDS011;62005;50.082;8.988;2023-03-04T18:12:04;11.10;;;4.93;;
73699;SDS011;62005;50.082;8.988;2023-03-04T18:14:30;12.30;;;5.13;;
73699;SDS011;62005;50.082;8.988;2023-03-04T18:16:55;8.73;;;4.90;;
73699;SDS011;62005;50.082;8.988;2023-03-04T18:19:21;11.82;;;4.63;;
73699;SDS011;62005;50.082;8.988;2023-03-04T18:21:46;13.23;;;6.13;;
73699;SDS011;62005;50.082;8.988;2023-03-04T18:24:11;25.17;;;10.17;;
73699;SDS011;62005;50.082;8.988;2023-03-04T18:26:37;61.93;;;21.73;;
73699;SDS011;62005;50.082;8.988;2023-03-04T18:29:13;31.17;;;12.40;;
73699;SDS011;62005;50.082;8.988;2023-03-04T18:31:47;29.23;;;12.75;;
73699;SDS011;62005;50.082;8.988;2023-03-04T18:34:18;20.58;;;9.65;;
73699;SDS011;62005;50.082;8.988;2023-03-04T18:36:43;20.98;;;9.82;;
73699;SDS011;62005;50.082;8.988;2023-03-04T18:39:09;18.52;;;9.88;;
73699;SDS011;62005;50.082;8.988;2023-03-04T18:41:34;18.10;;;9.83;;
73699;SDS011;62005;50.082;8.988;2023-03-04T18:43:59;12.90;;;6.87;;
73699;SDS011;62005;50.082;8.988;2023-03-04T18:46:46;12.63;;;6.50;;
73699;SDS011;62005;50.082;8.988;2023-03-04T18:49:14;13.02;;;5.00;;
73699;SDS011;62005;50.082;8.988;2023-03-04T18:51:40;11.60;;;5.90;;
73699;SDS011;62005;50.082;8.988;2023-03-04T18:54:08;12.57;;;6.67;;
73699;SDS011;62005;50.082;8.988;2023-03-04T18:56:53;11.80;;;6.38;;
73699;SDS011;62005;50.082;8.988;2023-03-04T19:06:48;12.52;;;5.53;;
73699;SDS011;62005;50.082;8.988;2023-03-04T19:13:35;10.13;;;5.78;;
73699;SDS011;62005;50.082;8.988;2023-03-04T19:22:00;15.93;;;7.60;;
73699;SDS011;62005;50.082;8.988;2023-03-04T19:24:26;19.95;;;9.57;;
73699;SDS011;62005;50.082;8.988;2023-03-04T19:27:20;15.88;;;9.00;;
73699;SDS011;62005;50.082;8.988;2023-03-04T19:30:09;16.30;;;8.35;;
73699;SDS011;62005;50.082;8.988;2023-03-04T19:35:29;16.00;;;6.95;;
73699;SDS011;62005;50.082;8.988;2023-03-04T19:38:08;18.88;;;8.00;;
73699;SDS011;62005;50.082;8.988;2023-03-04T19:40:45;15.95;;;7.60;;
73699;SDS011;62005;50.082;8.988;2023-03-04T19:43:11;14.57;;;7.47;;
73699;SDS011;62005;50.082;8.988;2023-03-04T19:48:06;15.88;;;8.60;;
73699;SDS011;62005;50.082;8.988;2023-03-04T19:50:34;14.50;;;7.03;;
73699;SDS011;62005;50.082;8.988;2023-03-04T19:53:20;12.20;;;6.75;;
73699;SDS011;62005;50.082;8.988;2023-03-04T19:55:52;12.27;;;6.75;;
73699;SDS011;62005;50.082;8.988;2023-03-04T19:58:25;16.10;;;8.90;;
73699;SDS011;62005;50.082;8.988;2023-03-04T20:00:53;16.58;;;8.57;;
73699;SDS011;62005;50.082;8.988;2023-03-04T20:03:20;20.80;;;9.35;;
73699;SDS011;62005;50.082;8.988;2023-03-04T20:06:03;14.20;;;8.27;;
73699;SDS011;62005;50.082;8.988;2023-03-04T20:08:29;15.93;;;9.48;;
73699;SDS011;62005;50.082;8.988;2023-03-04T20:10:55;15.93;;;9.47;;
73699;SDS011;62005;50.082;8.988;2023-03-04T20:13:20;13.10;;;7.37;;
73699;SDS011;62005;50.082;8.988;2023-03-04T20:15:45;12.07;;;6.83;;
73699;SDS011;62005;50.082;8.988;2023-03-04T20:18:11;12.73;;;6.20;;
73699;SDS011;62005;50.082;8.988;2023-03-04T20:20:37;12.43;;;6.43;;
73699;SDS011;62005;50.082;8.988;2023-03-04T20:23:02;13.43;;;7.45;;
73699;SDS011;62005;50.082;8.988;2023-03-04T20:25:28;12.80;;;7.37;;
73699;SDS011;62005;50.082;8.988;2023-03-04T20:27:55;12.32;;;6.03;;
73699;SDS011;62005;50.082;8.988;2023-03-04T20:30:22;14.60;;;7.20;;
73699;SDS011;62005;50.082;8.988;2023-03-04T20:32:47;10.63;;;7.65;;
73699;SDS011;62005;50.082;8.988;2023-03-04T20:35:13;14.27;;;8.20;;
73699;SDS011;62005;50.082;8.988;2023-03-04T20:37:39;15.10;;;7.63;;
73699;SDS011;62005;50.082;8.988;2023-03-04T20:40:12;12.50;;;6.90;;
73699;SDS011;62005;50.082;8.988;2023-03-04T20:43:05;12.65;;;6.57;;
73699;SDS011;62005;50.082;8.988;2023-03-04T20:45:31;8.87;;;6.40;;
73699;SDS011;62005;50.082;8.988;2023-03-04T20:47:57;12.43;;;6.57;;
73699;SDS011;62005;50.082;8.988;2023-03-04T20:50:22;10.07;;;6.17;;
73699;SDS011;62005;50.082;8.988;2023-03-04T20:52:49;13.23;;;6.90;;
73699;SDS011;62005;50.082;8.988;2023-03-04T20:55:15;10.80;;;6.13;;
73699;SDS011;62005;50.082;8.988;2023-03-04T20:57:41;10.55;;;6.05;;
73699;SDS011;62005;50.082;8.988;2023-03-04T21:00:06;11.17;;;6.23;;
73699;SDS011;62005;50.082;8.988;2023-03-04T21:02:32;11.55;;;6.82;;
73699;SDS011;62005;50.082;8.988;2023-03-04T21:04:58;11.97;;;6.10;;
73699;SDS011;62005;50.082;8.988;2023-03-04T21:07:25;11.32;;;6.63;;
73699;SDS011;62005;50.082;8.988;2023-03-04T21:09:50;13.18;;;6.72;;
73699;SDS011;62005;50.082;8.988;2023-03-04T21:12:16;13.00;;;6.83;;
73699;SDS011;62005;50.082;8.988;2023-03-04T21:14:41;15.15;;;7.80;;
73699;SDS011;62005;50.082;8.988;2023-03-04T21:17:08;10.00;;;6.05;;
73699;SDS011;62005;50.082;8.988;2023-03-04T21:19:34;12.48;;;6.97;;
73699;SDS011;62005;50.082;8.988;2023-03-04T21:22:03;12.25;;;6.78;;
73699;SDS011;62005;50.082;8.988;2023-03-04T21:24:30;13.98;;;7.28;;
73699;SDS011;62005;50.082;8.988;2023-03-04T21:26:57;12.27;;;6.60;;
73699;SDS011;62005;50.082;8.988;2023-03-04T21:29:23;11.43;;;6.72;;
73699;SDS011;62005;50.082;8.988;2023-03-04T21:31:55;11.13;;;6.88;;
73699;SDS011;62005;50.082;8.988;2023-03-04T21:34:36;9.85;;;6.45;;
73699;SDS011;62005;50.082;8.988;2023-03-04T21:37:04;13.85;;;6.85;;
73699;SDS011;62005;50.082;8.988;2023-03-04T21:39:30;11.02;;;6.95;;
73699;SDS011;62005;50.082;8.988;2023-03-04T21:42:00;10.07;;;6.43;;
73699;SDS011;62005;50.082;8.988;2023-03-04T21:44:26;13.07;;;6.40;;
73699;SDS011;62005;50.082;8.988;2023-03-04T21:46:54;13.63;;;6.38;;
73699;SDS011;62005;50.082;8.988;2023-03-04T21:49:23;10.90;;;6.18;;
73699;SDS011;62005;50.082;8.988;2023-03-04T21:51:49;11.52;;;6.72;;
73699;SDS011;62005;50.082;8.988;2023-03-04T21:54:15;10.27;;;6.57;;
73699;SDS011;62005;50.082;8.988;2023-03-04T21:56:40;10.98;;;5.53;;
73699;SDS011;62005;50.082;8.988;2023-03-04T21:59:06;11.57;;;6.82;;
73699;SDS011;62005;50.082;8.988;2023-03-04T22:01:34;11.32;;;6.95;;
73699;SDS011;62005;50.082;8.988;2023-03-04T22:03:59;10.97;;;5.07;;
73699;SDS011;62005;50.082;8.988;2023-03-04T22:06:25;9.20;;;6.10;;
73699;SDS011;62005;50.082;8.988;2023-03-04T22:08:51;11.63;;;6.90;;
73699;SDS011;62005;50.082;8.988;2023-03-04T22:11:20;10.55;;;5.97;;
73699;SDS011;62005;50.082;8.988;2023-03-04T22:13:46;10.88;;;6.22;;
73699;SDS011;62005;50.082;8.988;2023-03-04T22:16:16;10.55;;;6.88;;
73699;SDS011;62005;50.082;8.988;2023-03-04T22:18:41;11.32;;;5.63;;
73699;SDS011;62005;50.082;8.988;2023-03-04T22:21:08;11.10;;;6.13;;
73699;SDS011;62005;50.082;8.988;2023-03-04T22:23:34;11.35;;;5.63;;
73699;SDS011;62005;50.082;8.988;2023-03-04T22:26:04;14.20;;;7.40;;
73699;SDS011;62005;50.082;8.988;2023-03-04T22:28:31;12.52;;;7.55;;
73699;SDS011;62005;50.082;8.988;2023-03-04T22:30:57;12.48;;;6.97;;
73699;SDS011;62005;50.082;8.988;2023-03-04T22:33:22;12.70;;;7.32;;
73699;SDS011;62005;50.082;8.988;2023-03-04T22:35:49;10.75;;;6.55;;
73699;SDS011;62005;50.082;8.988;2023-03-04T22:38:16;12.45;;;6.93;;
73699;SDS011;62005;50.082;8.988;2023-03-04T22:40:41;11.43;;;5.40;;
73699;SDS011;62005;50.082;8.988;2023-03-04T22:43:07;12.17;;;7.00;;
73699;SDS011;62005;50.082;8.988;2023-03-04T22:46:00;15.50;;;8.60;;
73699;SDS011;62005;50.082;8.988;2023-03-04T22:49:07;14.43;;;8.45;;
73699;SDS011;62005;50.082;8.988;2023-03-04T22:51:50;17.52;;;10.30;;
73699;SDS011;62005;50.082;8.988;2023-03-04T22:54:18;16.10;;;9.07;;
73699;SDS011;62005;50.082;8.988;2023-03-04T22:56:46;20.80;;;10.88;;
73699;SDS011;62005;50.082;8.988;2023-03-04T22:59:14;18.40;;;10.77;;
73699;SDS011;62005;50.082;8.988;2023-03-04T23:01:40;17.90;;;9.27;;
73699;SDS011;62005;50.082;8.988;2023-03-04T23:04:05;13.43;;;8.52;;
73699;SDS011;62005;50.082;8.988;2023-03-04T23:06:31;14.25;;;9.50;;
73699;SDS011;62005;50.082;8.988;2023-03-04T23:08:57;14.67;;;9.60;;
73699;SDS011;62005;50.082;8.988;2023-03-04T23:11:27;16.02;;;10.20;;
73699;SDS011;62005;50.082;8.988;2023-03-04T23:13:54;16.67;;;10.10;;
73699;SDS011;62005;50.082;8.988;2023-03-04T23:16:20;17.35;;;10.38;;
73699;SDS011;62005;50.082;8.988;2023-03-04T23:18:47;17.67;;;10.02;;
73699;SDS011;62005;50.082;8.988;2023-03-04T23:21:16;17.50;;;10.02;;
73699;SDS011;62005;50.082;8.988;2023-03-04T23:23:47;15.35;;;8.20;;
73699;SDS011;62005;50.082;8.988;2023-03-04T23:28:44;12.48;;;7.80;;
73699;SDS011;62005;50.082;8.988;2023-03-04T23:31:09;15.48;;;8.82;;
73699;SDS011;62005;50.082;8.988;2023-03-04T23:33:35;15.35;;;8.50;;
73699;SDS011;62005;50.082;8.988;2023-03-04T23:36:00;15.03;;;9.43;;
73699;SDS011;62005;50.082;8.988;2023-03-04T23:38:26;12.90;;;8.52;;
73699;SDS011;62005;50.082;8.988;2023-03-04T23:40:51;11.80;;;8.02;;
73699;SDS011;62005;50.082;8.988;2023-03-04T23:43:17;12.47;;;7.57;;
73699;SDS011;62005;50.082;8.988;2023-03-04T23:45:42;13.60;;;7.67;;
73699;SDS011;62005;50.082;8.988;2023-03-04T23:48:07;12.05;;;7.30;;
73699;SDS011;62005;50.082;8.988;2023-03-04T23:50:33;11.33;;;7.37;;
73699;SDS011;62005;50.082;8.988;2023-03-04T23:52:59;12.77;;;7.88;;
73699;SDS011;62005;50.082;8.988;2023-03-04T23:55:25;14.10;;;7.90;;
73699;SDS011;62005;50.082;8.988;2023-03-04T23:57:52;13.45;;;8.75;;
